sensor_id;sensor_type;location;lat;lon;timestamp;P1;durP1;ratioP1;P2;durP2;ratioP2
19535;SDS011;9913;51.168;4.124;2023-01-29T00:02:14;41.87;;;21.87;;
19535;SDS011;9913;51.168;4.124;2023-01-29T00:04:42;42.13;;;22.77;;
19535;SDS011;9913;51.168;4.124;2023-01-29T00:07:12;45.07;;;23.40;;
19535;SDS011;9913;51.168;4.124;2023-01-29T00:09:40;46.43;;;21.93;;
19535;SDS011;9913;51.168;4.124;2023-01-29T00:12:09;39.50;;;21.20;;
19535;SDS011;9913;51.168;4.124;2023-01-29T00:14:37;40.63;;;21.77;;
19535;SDS011;9913;51.168;4.124;2023-01-29T00:17:05;47.47;;;21.73;;
19535;SDS011;9913;51.168;4.124;2023-01-29T00:19:34;44.77;;;23.83;;
19535;SDS011;9913;51.168;4.124;2023-01-29T00:22:02;46.87;;;23.60;;
19535;SDS011;9913;51.168;4.124;2023-01-29T00:24:32;44.07;;;23.30;;
19535;SDS011;9913;51.168;4.124;2023-01-29T00:27:00;41.13;;;21.20;;
19535;SDS011;9913;51.168;4.124;2023-01-29T00:29:29;40.77;;;21.17;;
19535;SDS011;9913;51.168;4.124;2023-01-29T00:31:57;44.60;;;22.17;;
19535;SDS011;9913;51.168;4.124;2023-01-29T00:34:25;41.40;;;20.53;;
19535;SDS011;9913;51.168;4.124;2023-01-29T00:36:54;44.00;;;22.20;;
19535;SDS011;9913;51.168;4.124;2023-01-29T00:39:36;41.00;;;21.93;;
19535;SDS011;9913;51.168;4.124;2023-01-29T00:42:13;41.73;;;21.70;;
19535;SDS011;9913;51.168;4.124;2023-01-29T00:45:00;47.87;;;23.10;;
19535;SDS011;9913;51.168;4.124;2023-01-29T00:47:28;43.23;;;21.73;;
19535;SDS011;9913;51.168;4.124;2023-01-29T00:50:00;39.47;;;22.30;;
19535;SDS011;9913;51.168;4.124;2023-01-29T00:52:29;47.23;;;23.10;;
19535;SDS011;9913;51.168;4.124;2023-01-29T00:54:59;43.53;;;20.53;;
19535;SDS011;9913;51.168;4.124;2023-01-29T00:57:28;49.40;;;22.80;;
19535;SDS011;9913;51.168;4.124;2023-01-29T00:59:58;43.97;;;23.43;;
19535;SDS011;9913;51.168;4.124;2023-01-29T01:02:26;44.73;;;24.27;;
19535;SDS011;9913;51.168;4.124;2023-01-29T01:05:13;44.20;;;21.93;;
19535;SDS011;9913;51.168;4.124;2023-01-29T01:07:46;45.73;;;23.73;;
19535;SDS011;9913;51.168;4.124;2023-01-29T01:10:17;40.93;;;22.20;;
19535;SDS011;9913;51.168;4.124;2023-01-29T01:12:47;45.90;;;22.77;;
19535;SDS011;9913;51.168;4.124;2023-01-29T01:15:22;50.60;;;24.20;;
19535;SDS011;9913;51.168;4.124;2023-01-29T01:17:52;45.80;;;23.00;;
19535;SDS011;9913;51.168;4.124;2023-01-29T01:20:21;37.27;;;20.57;;
19535;SDS011;9913;51.168;4.124;2023-01-29T01:22:50;43.03;;;23.60;;
19535;SDS011;9913;51.168;4.124;2023-01-29T01:25:21;43.47;;;21.80;;
19535;SDS011;9913;51.168;4.124;2023-01-29T01:27:51;41.90;;;22.43;;
19535;SDS011;9913;51.168;4.124;2023-01-29T01:30:19;42.63;;;22.07;;
19535;SDS011;9913;51.168;4.124;2023-01-29T01:32:48;36.43;;;20.97;;
19535;SDS011;9913;51.168;4.124;2023-01-29T01:35:16;40.33;;;22.57;;
19535;SDS011;9913;51.168;4.124;2023-01-29T01:37:45;41.97;;;22.53;;
19535;SDS011;9913;51.168;4.124;2023-01-29T01:40:14;41.07;;;21.57;;
19535;SDS011;9913;51.168;4.124;2023-01-29T01:42:47;46.27;;;23.93;;
19535;SDS011;9913;51.168;4.124;2023-01-29T01:45:18;45.10;;;23.27;;
19535;SDS011;9913;51.168;4.124;2023-01-29T01:47:49;41.67;;;22.50;;
19535;SDS011;9913;51.168;4.124;2023-01-29T01:50:21;42.43;;;23.07;;
19535;SDS011;9913;51.168;4.124;2023-01-29T01:52:54;45.63;;;22.73;;
19535;SDS011;9913;51.168;4.124;2023-01-29T01:55:26;43.90;;;22.67;;
19535;SDS011;9913;51.168;4.124;2023-01-29T01:58:03;42.00;;;24.10;;
19535;SDS011;9913;51.168;4.124;2023-01-29T02:00:36;44.50;;;23.70;;
19535;SDS011;9913;51.168;4.124;2023-01-29T02:03:05;45.47;;;22.77;;
19535;SDS011;9913;51.168;4.124;2023-01-29T02:05:53;42.83;;;23.30;;
19535;SDS011;9913;51.168;4.124;2023-01-29T02:08:43;38.17;;;22.00;;
19535;SDS011;9913;51.168;4.124;2023-01-29T02:11:34;43.97;;;23.93;;
19535;SDS011;9913;51.168;4.124;2023-01-29T02:14:04;46.10;;;23.40;;
19535;SDS011;9913;51.168;4.124;2023-01-29T02:16:33;38.87;;;21.97;;
19535;SDS011;9913;51.168;4.124;2023-01-29T02:19:02;43.17;;;22.37;;
19535;SDS011;9913;51.168;4.124;2023-01-29T02:21:44;40.10;;;21.33;;
19535;SDS011;9913;51.168;4.124;2023-01-29T02:24:30;42.23;;;23.00;;
19535;SDS011;9913;51.168;4.124;2023-01-29T02:27:29;40.10;;;22.13;;
19535;SDS011;9913;51.168;4.124;2023-01-29T02:30:08;42.37;;;22.33;;
19535;SDS011;9913;51.168;4.124;2023-01-29T02:32:46;39.93;;;22.63;;
19535;SDS011;9913;51.168;4.124;2023-01-29T02:35:25;43.17;;;23.53;;
19535;SDS011;9913;51.168;4.124;2023-01-29T02:38:01;45.70;;;23.73;;
19535;SDS011;9913;51.168;4.124;2023-01-29T02:40:41;38.73;;;22.07;;
19535;SDS011;9913;51.168;4.124;2023-01-29T02:43:18;47.50;;;24.50;;
19535;SDS011;9913;51.168;4.124;2023-01-29T02:45:59;45.73;;;23.70;;
19535;SDS011;9913;51.168;4.124;2023-01-29T02:48:36;43.07;;;23.30;;
19535;SDS011;9913;51.168;4.124;2023-01-29T02:51:09;48.53;;;24.20;;
19535;SDS011;9913;51.168;4.124;2023-01-29T02:53:47;43.30;;;23.73;;
19535;SDS011;9913;51.168;4.124;2023-01-29T02:56:26;38.87;;;22.63;;
19535;SDS011;9913;51.168;4.124;2023-01-29T02:59:02;37.63;;;22.97;;
19535;SDS011;9913;51.168;4.124;2023-01-29T03:01:39;43.10;;;22.93;;
19535;SDS011;9913;51.168;4.124;2023-01-29T03:04:14;43.53;;;22.23;;
19535;SDS011;9913;51.168;4.124;2023-01-29T03:06:47;40.00;;;22.20;;
19535;SDS011;9913;51.168;4.124;2023-01-29T03:09:23;49.70;;;23.23;;
19535;SDS011;9913;51.168;4.124;2023-01-29T03:11:57;44.10;;;24.10;;
19535;SDS011;9913;51.168;4.124;2023-01-29T03:14:46;40.43;;;22.33;;
19535;SDS011;9913;51.168;4.124;2023-01-29T03:17:37;43.10;;;22.87;;
19535;SDS011;9913;51.168;4.124;2023-01-29T03:20:10;41.70;;;22.50;;
19535;SDS011;9913;51.168;4.124;2023-01-29T03:22:46;44.70;;;23.30;;
19535;SDS011;9913;51.168;4.124;2023-01-29T03:25:17;39.83;;;22.03;;
19535;SDS011;9913;51.168;4.124;2023-01-29T03:28:05;43.03;;;21.37;;
19535;SDS011;9913;51.168;4.124;2023-01-29T03:30:55;39.20;;;22.07;;
19535;SDS011;9913;51.168;4.124;2023-01-29T03:33:53;41.83;;;21.40;;
19535;SDS011;9913;51.168;4.124;2023-01-29T03:36:28;40.87;;;22.17;;
19535;SDS011;9913;51.168;4.124;2023-01-29T03:39:04;42.27;;;21.97;;
19535;SDS011;9913;51.168;4.124;2023-01-29T03:41:33;34.47;;;20.27;;
19535;SDS011;9913;51.168;4.124;2023-01-29T03:44:09;42.00;;;21.90;;
19535;SDS011;9913;51.168;4.124;2023-01-29T03:46:44;41.33;;;22.20;;
19535;SDS011;9913;51.168;4.124;2023-01-29T03:49:23;43.80;;;22.20;;
19535;SDS011;9913;51.168;4.124;2023-01-29T03:52:00;39.07;;;20.90;;
19535;SDS011;9913;51.168;4.124;2023-01-29T03:54:34;39.73;;;21.77;;
19535;SDS011;9913;51.168;4.124;2023-01-29T03:57:12;39.27;;;21.43;;
19535;SDS011;9913;51.168;4.124;2023-01-29T03:59:48;38.77;;;20.53;;
19535;SDS011;9913;51.168;4.124;2023-01-29T04:02:41;38.30;;;20.67;;
19535;SDS011;9913;51.168;4.124;2023-01-29T04:05:18;36.97;;;21.03;;
19535;SDS011;9913;51.168;4.124;2023-01-29T04:08:07;39.63;;;21.67;;
19535;SDS011;9913;51.168;4.124;2023-01-29T04:10:41;33.63;;;19.60;;
19535;SDS011;9913;51.168;4.124;2023-01-29T04:13:13;40.37;;;20.93;;
19535;SDS011;9913;51.168;4.124;2023-01-29T04:15:46;36.90;;;20.67;;
19535;SDS011;9913;51.168;4.124;2023-01-29T04:18:24;41.27;;;21.00;;
19535;SDS011;9913;51.168;4.124;2023-01-29T04:21:05;43.00;;;22.13;;
19535;SDS011;9913;51.168;4.124;2023-01-29T04:23:34;42.17;;;22.40;;
19535;SDS011;9913;51.168;4.124;2023-01-29T04:26:08;43.97;;;21.47;;
19535;SDS011;9913;51.168;4.124;2023-01-29T04:28:52;42.33;;;21.13;;
19535;SDS011;9913;51.168;4.124;2023-01-29T04:31:27;42.40;;;21.83;;
19535;SDS011;9913;51.168;4.124;2023-01-29T04:34:03;42.10;;;22.43;;
19535;SDS011;9913;51.168;4.124;2023-01-29T04:36:44;42.67;;;21.50;;
19535;SDS011;9913;51.168;4.124;2023-01-29T04:39:17;43.60;;;21.33;;
19535;SDS011;9913;51.168;4.124;2023-01-29T04:41:51;35.43;;;20.73;;
19535;SDS011;9913;51.168;4.124;2023-01-29T04:44:23;44.23;;;22.20;;
19535;SDS011;9913;51.168;4.124;2023-01-29T04:47:02;41.23;;;21.77;;
19535;SDS011;9913;51.168;4.124;2023-01-29T04:49:38;39.67;;;21.97;;
19535;SDS011;9913;51.168;4.124;2023-01-29T04:52:14;37.07;;;20.70;;
19535;SDS011;9913;51.168;4.124;2023-01-29T04:54:52;40.90;;;22.83;;
19535;SDS011;9913;51.168;4.124;2023-01-29T04:57:29;39.13;;;20.73;;
19535;SDS011;9913;51.168;4.124;2023-01-29T05:00:03;43.37;;;20.83;;
19535;SDS011;9913;51.168;4.124;2023-01-29T05:02:38;42.40;;;23.03;;
19535;SDS011;9913;51.168;4.124;2023-01-29T05:05:08;44.23;;;22.30;;
19535;SDS011;9913;51.168;4.124;2023-01-29T05:07:40;39.77;;;21.13;;
19535;SDS011;9913;51.168;4.124;2023-01-29T05:10:10;41.57;;;20.93;;
19535;SDS011;9913;51.168;4.124;2023-01-29T05:12:42;40.57;;;20.57;;
19535;SDS011;9913;51.168;4.124;2023-01-29T05:15:13;38.43;;;20.77;;
19535;SDS011;9913;51.168;4.124;2023-01-29T05:17:46;37.00;;;22.20;;
19535;SDS011;9913;51.168;4.124;2023-01-29T05:20:14;45.20;;;22.53;;
19535;SDS011;9913;51.168;4.124;2023-01-29T05:22:45;36.43;;;20.30;;
19535;SDS011;9913;51.168;4.124;2023-01-29T05:25:18;36.40;;;19.90;;
19535;SDS011;9913;51.168;4.124;2023-01-29T05:27:49;40.20;;;20.53;;
19535;SDS011;9913;51.168;4.124;2023-01-29T05:30:34;40.83;;;21.53;;
19535;SDS011;9913;51.168;4.124;2023-01-29T05:33:08;40.43;;;21.30;;
19535;SDS011;9913;51.168;4.124;2023-01-29T05:35:39;40.63;;;20.47;;
19535;SDS011;9913;51.168;4.124;2023-01-29T05:38:09;40.80;;;20.83;;
19535;SDS011;9913;51.168;4.124;2023-01-29T05:40:38;37.83;;;20.03;;
19535;SDS011;9913;51.168;4.124;2023-01-29T05:43:11;43.63;;;22.17;;
19535;SDS011;9913;51.168;4.124;2023-01-29T05:45:42;43.33;;;21.00;;
19535;SDS011;9913;51.168;4.124;2023-01-29T05:48:10;38.73;;;20.30;;
19535;SDS011;9913;51.168;4.124;2023-01-29T05:50:38;42.13;;;22.10;;
19535;SDS011;9913;51.168;4.124;2023-01-29T05:53:07;40.50;;;20.37;;
19535;SDS011;9913;51.168;4.124;2023-01-29T05:55:37;43.03;;;20.17;;
19535;SDS011;9913;51.168;4.124;2023-01-29T05:58:05;39.57;;;20.40;;
19535;SDS011;9913;51.168;4.124;2023-01-29T06:00:33;41.00;;;20.60;;
19535;SDS011;9913;51.168;4.124;2023-01-29T06:03:02;46.67;;;21.20;;
19535;SDS011;9913;51.168;4.124;2023-01-29T06:05:30;40.77;;;21.60;;
19535;SDS011;9913;51.168;4.124;2023-01-29T06:07:58;41.43;;;21.80;;
19535;SDS011;9913;51.168;4.124;2023-01-29T06:10:28;43.50;;;21.97;;
19535;SDS011;9913;51.168;4.124;2023-01-29T06:12:56;42.27;;;22.00;;
19535;SDS011;9913;51.168;4.124;2023-01-29T06:15:25;41.60;;;20.97;;
19535;SDS011;9913;51.168;4.124;2023-01-29T06:17:54;43.30;;;21.03;;
19535;SDS011;9913;51.168;4.124;2023-01-29T06:20:22;41.77;;;21.40;;
19535;SDS011;9913;51.168;4.124;2023-01-29T06:22:51;42.07;;;21.53;;
19535;SDS011;9913;51.168;4.124;2023-01-29T06:25:19;36.70;;;20.17;;
19535;SDS011;9913;51.168;4.124;2023-01-29T06:27:50;45.70;;;21.27;;
19535;SDS011;9913;51.168;4.124;2023-01-29T06:30:18;39.77;;;21.33;;
19535;SDS011;9913;51.168;4.124;2023-01-29T06:32:47;38.53;;;20.63;;
19535;SDS011;9913;51.168;4.124;2023-01-29T06:35:15;40.23;;;20.80;;
19535;SDS011;9913;51.168;4.124;2023-01-29T06:37:44;37.00;;;19.93;;
19535;SDS011;9913;51.168;4.124;2023-01-29T06:40:12;40.23;;;20.20;;
19535;SDS011;9913;51.168;4.124;2023-01-29T06:42:41;40.97;;;21.77;;
19535;SDS011;9913;51.168;4.124;2023-01-29T06:45:13;43.93;;;21.63;;
19535;SDS011;9913;51.168;4.124;2023-01-29T06:47:41;40.03;;;21.30;;
19535;SDS011;9913;51.168;4.124;2023-01-29T06:50:10;36.73;;;19.57;;
19535;SDS011;9913;51.168;4.124;2023-01-29T06:52:38;42.60;;;21.47;;
19535;SDS011;9913;51.168;4.124;2023-01-29T06:55:07;36.50;;;20.33;;
19535;SDS011;9913;51.168;4.124;2023-01-29T06:57:36;38.13;;;19.43;;
19535;SDS011;9913;51.168;4.124;2023-01-29T07:00:05;43.27;;;21.23;;
19535;SDS011;9913;51.168;4.124;2023-01-29T07:02:37;39.90;;;20.80;;
19535;SDS011;9913;51.168;4.124;2023-01-29T07:05:06;38.37;;;20.07;;
19535;SDS011;9913;51.168;4.124;2023-01-29T07:07:35;35.97;;;19.97;;
19535;SDS011;9913;51.168;4.124;2023-01-29T07:10:03;40.90;;;20.73;;
19535;SDS011;9913;51.168;4.124;2023-01-29T07:12:32;44.83;;;20.47;;
19535;SDS011;9913;51.168;4.124;2023-01-29T07:15:01;41.90;;;20.43;;
19535;SDS011;9913;51.168;4.124;2023-01-29T07:17:29;38.03;;;19.93;;
19535;SDS011;9913;51.168;4.124;2023-01-29T07:19:59;37.43;;;19.57;;
19535;SDS011;9913;51.168;4.124;2023-01-29T07:22:27;38.77;;;19.77;;
19535;SDS011;9913;51.168;4.124;2023-01-29T07:24:55;38.00;;;19.13;;
19535;SDS011;9913;51.168;4.124;2023-01-29T07:27:23;39.07;;;20.97;;
19535;SDS011;9913;51.168;4.124;2023-01-29T07:29:52;43.27;;;21.17;;
19535;SDS011;9913;51.168;4.124;2023-01-29T07:32:20;39.37;;;19.97;;
19535;SDS011;9913;51.168;4.124;2023-01-29T07:34:49;38.60;;;20.37;;
19535;SDS011;9913;51.168;4.124;2023-01-29T07:37:18;36.77;;;19.37;;
19535;SDS011;9913;51.168;4.124;2023-01-29T07:39:46;37.07;;;20.00;;
19535;SDS011;9913;51.168;4.124;2023-01-29T07:42:15;36.17;;;19.93;;
19535;SDS011;9913;51.168;4.124;2023-01-29T07:44:43;38.57;;;19.33;;
19535;SDS011;9913;51.168;4.124;2023-01-29T07:47:11;38.63;;;19.83;;
19535;SDS011;9913;51.168;4.124;2023-01-29T07:49:42;38.30;;;20.00;;
19535;SDS011;9913;51.168;4.124;2023-01-29T07:52:10;39.37;;;21.10;;
19535;SDS011;9913;51.168;4.124;2023-01-29T07:54:40;35.77;;;19.87;;
19535;SDS011;9913;51.168;4.124;2023-01-29T07:57:08;38.97;;;20.13;;
19535;SDS011;9913;51.168;4.124;2023-01-29T07:59:37;36.67;;;20.60;;
19535;SDS011;9913;51.168;4.124;2023-01-29T08:02:05;40.73;;;20.37;;
19535;SDS011;9913;51.168;4.124;2023-01-29T08:04:33;41.57;;;20.77;;
19535;SDS011;9913;51.168;4.124;2023-01-29T08:07:01;41.00;;;21.23;;
19535;SDS011;9913;51.168;4.124;2023-01-29T08:09:30;40.43;;;19.63;;
19535;SDS011;9913;51.168;4.124;2023-01-29T08:12:00;37.43;;;20.50;;
19535;SDS011;9913;51.168;4.124;2023-01-29T08:14:28;38.33;;;20.57;;
19535;SDS011;9913;51.168;4.124;2023-01-29T08:16:56;42.43;;;19.67;;
19535;SDS011;9913;51.168;4.124;2023-01-29T08:19:24;33.50;;;19.10;;
19535;SDS011;9913;51.168;4.124;2023-01-29T08:21:53;37.07;;;19.40;;
19535;SDS011;9913;51.168;4.124;2023-01-29T08:24:21;37.83;;;19.33;;
19535;SDS011;9913;51.168;4.124;2023-01-29T08:27:08;39.53;;;20.17;;
19535;SDS011;9913;51.168;4.124;2023-01-29T08:29:36;40.47;;;19.77;;
19535;SDS011;9913;51.168;4.124;2023-01-29T08:32:05;40.57;;;20.17;;
19535;SDS011;9913;51.168;4.124;2023-01-29T08:34:37;42.40;;;20.70;;
19535;SDS011;9913;51.168;4.124;2023-01-29T08:37:05;37.97;;;19.10;;
19535;SDS011;9913;51.168;4.124;2023-01-29T08:39:33;37.80;;;20.13;;
19535;SDS011;9913;51.168;4.124;2023-01-29T08:42:02;37.13;;;19.40;;
19535;SDS011;9913;51.168;4.124;2023-01-29T08:44:32;40.63;;;21.47;;
19535;SDS011;9913;51.168;4.124;2023-01-29T08:47:00;40.00;;;20.23;;
19535;SDS011;9913;51.168;4.124;2023-01-29T08:49:28;34.37;;;18.73;;
19535;SDS011;9913;51.168;4.124;2023-01-29T08:51:56;39.10;;;19.73;;
19535;SDS011;9913;51.168;4.124;2023-01-29T08:54:27;31.37;;;17.80;;
19535;SDS011;9913;51.168;4.124;2023-01-29T08:56:55;37.17;;;19.73;;
19535;SDS011;9913;51.168;4.124;2023-01-29T08:59:23;39.07;;;20.57;;
19535;SDS011;9913;51.168;4.124;2023-01-29T09:01:53;38.77;;;20.27;;
19535;SDS011;9913;51.168;4.124;2023-01-29T09:04:21;42.53;;;19.60;;
19535;SDS011;9913;51.168;4.124;2023-01-29T09:06:50;39.33;;;20.23;;
19535;SDS011;9913;51.168;4.124;2023-01-29T09:09:18;41.40;;;20.87;;
19535;SDS011;9913;51.168;4.124;2023-01-29T09:11:47;39.43;;;20.60;;
19535;SDS011;9913;51.168;4.124;2023-01-29T09:14:15;38.67;;;19.90;;
19535;SDS011;9913;51.168;4.124;2023-01-29T09:16:43;37.53;;;19.97;;
19535;SDS011;9913;51.168;4.124;2023-01-29T09:19:13;40.63;;;20.40;;
19535;SDS011;9913;51.168;4.124;2023-01-29T09:21:41;37.50;;;19.00;;
19535;SDS011;9913;51.168;4.124;2023-01-29T09:24:10;37.20;;;20.43;;
19535;SDS011;9913;51.168;4.124;2023-01-29T09:26:38;37.80;;;20.13;;
19535;SDS011;9913;51.168;4.124;2023-01-29T09:29:08;38.37;;;19.33;;
19535;SDS011;9913;51.168;4.124;2023-01-29T09:31:36;37.63;;;20.60;;
19535;SDS011;9913;51.168;4.124;2023-01-29T09:34:05;37.53;;;19.87;;
19535;SDS011;9913;51.168;4.124;2023-01-29T09:36:34;39.20;;;20.10;;
19535;SDS011;9913;51.168;4.124;2023-01-29T09:39:03;35.53;;;20.50;;
19535;SDS011;9913;51.168;4.124;2023-01-29T09:41:34;39.00;;;19.80;;
19535;SDS011;9913;51.168;4.124;2023-01-29T09:44:16;41.57;;;21.53;;
19535;SDS011;9913;51.168;4.124;2023-01-29T09:46:48;45.03;;;21.23;;
19535;SDS011;9913;51.168;4.124;2023-01-29T09:49:20;38.00;;;20.13;;
19535;SDS011;9913;51.168;4.124;2023-01-29T09:51:55;38.07;;;20.23;;
19535;SDS011;9913;51.168;4.124;2023-01-29T09:54:28;44.60;;;21.33;;
19535;SDS011;9913;51.168;4.124;2023-01-29T09:56:58;41.87;;;19.67;;
19535;SDS011;9913;51.168;4.124;2023-01-29T09:59:28;36.13;;;20.27;;
19535;SDS011;9913;51.168;4.124;2023-01-29T10:02:01;38.53;;;20.50;;
19535;SDS011;9913;51.168;4.124;2023-01-29T10:04:40;37.53;;;19.07;;
19535;SDS011;9913;51.168;4.124;2023-01-29T10:07:42;40.83;;;20.93;;
19535;SDS011;9913;51.168;4.124;2023-01-29T10:10:31;35.80;;;19.67;;
19535;SDS011;9913;51.168;4.124;2023-01-29T10:13:10;35.60;;;19.90;;
19535;SDS011;9913;51.168;4.124;2023-01-29T10:15:46;39.77;;;20.97;;
19535;SDS011;9913;51.168;4.124;2023-01-29T10:21:31;38.87;;;20.73;;
19535;SDS011;9913;51.168;4.124;2023-01-29T10:24:14;38.63;;;19.57;;
19535;SDS011;9913;51.168;4.124;2023-01-29T10:26:50;37.43;;;20.07;;
19535;SDS011;9913;51.168;4.124;2023-01-29T10:29:19;40.33;;;20.90;;
19535;SDS011;9913;51.168;4.124;2023-01-29T10:31:49;38.57;;;21.10;;
19535;SDS011;9913;51.168;4.124;2023-01-29T10:34:22;40.70;;;21.57;;
19535;SDS011;9913;51.168;4.124;2023-01-29T10:36:55;35.43;;;19.53;;
19535;SDS011;9913;51.168;4.124;2023-01-29T10:39:25;35.90;;;20.53;;
19535;SDS011;9913;51.168;4.124;2023-01-29T10:41:59;39.87;;;21.10;;
19535;SDS011;9913;51.168;4.124;2023-01-29T10:44:36;35.83;;;19.40;;
19535;SDS011;9913;51.168;4.124;2023-01-29T10:50:17;34.67;;;20.20;;
19535;SDS011;9913;51.168;4.124;2023-01-29T10:53:07;34.67;;;19.23;;
19535;SDS011;9913;51.168;4.124;2023-01-29T10:55:51;35.80;;;18.83;;
19535;SDS011;9913;51.168;4.124;2023-01-29T10:58:33;34.23;;;19.03;;
19535;SDS011;9913;51.168;4.124;2023-01-29T11:01:07;32.20;;;18.83;;
19535;SDS011;9913;51.168;4.124;2023-01-29T11:03:36;39.37;;;20.60;;
19535;SDS011;9913;51.168;4.124;2023-01-29T11:06:08;33.97;;;17.47;;
19535;SDS011;9913;51.168;4.124;2023-01-29T11:08:42;32.37;;;17.77;;
19535;SDS011;9913;51.168;4.124;2023-01-29T11:11:19;30.40;;;19.03;;
19535;SDS011;9913;51.168;4.124;2023-01-29T11:14:01;36.03;;;18.80;;
19535;SDS011;9913;51.168;4.124;2023-01-29T11:16:39;34.57;;;19.93;;
19535;SDS011;9913;51.168;4.124;2023-01-29T11:19:09;30.80;;;18.90;;
19535;SDS011;9913;51.168;4.124;2023-01-29T11:21:49;32.10;;;18.43;;
19535;SDS011;9913;51.168;4.124;2023-01-29T11:24:19;32.80;;;18.93;;
19535;SDS011;9913;51.168;4.124;2023-01-29T11:26:49;33.47;;;18.93;;
19535;SDS011;9913;51.168;4.124;2023-01-29T11:32:07;30.97;;;17.90;;
19535;SDS011;9913;51.168;4.124;2023-01-29T11:34:56;33.30;;;18.87;;
19535;SDS011;9913;51.168;4.124;2023-01-29T11:37:31;28.57;;;17.03;;
19535;SDS011;9913;51.168;4.124;2023-01-29T11:43:15;30.37;;;18.10;;
19535;SDS011;9913;51.168;4.124;2023-01-29T11:45:46;30.17;;;17.37;;
19535;SDS011;9913;51.168;4.124;2023-01-29T11:48:17;28.60;;;17.53;;
19535;SDS011;9913;51.168;4.124;2023-01-29T11:50:51;32.47;;;19.03;;
19535;SDS011;9913;51.168;4.124;2023-01-29T11:53:23;28.43;;;16.93;;
19535;SDS011;9913;51.168;4.124;2023-01-29T11:56:03;22.33;;;15.40;;
19535;SDS011;9913;51.168;4.124;2023-01-29T11:58:41;26.63;;;16.37;;
19535;SDS011;9913;51.168;4.124;2023-01-29T12:01:10;24.70;;;15.13;;
19535;SDS011;9913;51.168;4.124;2023-01-29T12:03:40;28.17;;;16.70;;
19535;SDS011;9913;51.168;4.124;2023-01-29T12:06:13;24.60;;;16.17;;
19535;SDS011;9913;51.168;4.124;2023-01-29T12:08:51;29.20;;;16.63;;
19535;SDS011;9913;51.168;4.124;2023-01-29T12:11:23;24.00;;;15.87;;
19535;SDS011;9913;51.168;4.124;2023-01-29T12:13:56;27.43;;;16.30;;
19535;SDS011;9913;51.168;4.124;2023-01-29T12:16:27;27.40;;;16.17;;
19535;SDS011;9913;51.168;4.124;2023-01-29T12:19:01;27.37;;;15.80;;
19535;SDS011;9913;51.168;4.124;2023-01-29T12:21:38;27.47;;;16.63;;
19535;SDS011;9913;51.168;4.124;2023-01-29T12:24:19;25.47;;;16.20;;
19535;SDS011;9913;51.168;4.124;2023-01-29T12:26:59;26.67;;;16.13;;
19535;SDS011;9913;51.168;4.124;2023-01-29T12:29:39;26.13;;;16.10;;
19535;SDS011;9913;51.168;4.124;2023-01-29T12:32:15;27.37;;;16.07;;
19535;SDS011;9913;51.168;4.124;2023-01-29T12:34:54;28.90;;;16.03;;
19535;SDS011;9913;51.168;4.124;2023-01-29T12:37:28;31.00;;;17.57;;
19535;SDS011;9913;51.168;4.124;2023-01-29T12:40:10;30.87;;;17.07;;
19535;SDS011;9913;51.168;4.124;2023-01-29T12:42:40;26.77;;;16.03;;
19535;SDS011;9913;51.168;4.124;2023-01-29T12:45:14;26.10;;;15.43;;
19535;SDS011;9913;51.168;4.124;2023-01-29T12:47:45;29.10;;;16.07;;
19535;SDS011;9913;51.168;4.124;2023-01-29T12:50:17;27.60;;;16.20;;
19535;SDS011;9913;51.168;4.124;2023-01-29T12:52:49;32.70;;;16.27;;
19535;SDS011;9913;51.168;4.124;2023-01-29T12:55:21;23.53;;;15.23;;
19535;SDS011;9913;51.168;4.124;2023-01-29T12:57:53;29.83;;;16.43;;
19535;SDS011;9913;51.168;4.124;2023-01-29T13:00:26;28.97;;;16.43;;
19535;SDS011;9913;51.168;4.124;2023-01-29T13:02:59;31.23;;;17.00;;
19535;SDS011;9913;51.168;4.124;2023-01-29T13:05:33;27.03;;;15.43;;
19535;SDS011;9913;51.168;4.124;2023-01-29T13:08:06;30.87;;;17.07;;
19535;SDS011;9913;51.168;4.124;2023-01-29T13:10:39;29.53;;;16.67;;
19535;SDS011;9913;51.168;4.124;2023-01-29T13:13:11;29.27;;;16.27;;
19535;SDS011;9913;51.168;4.124;2023-01-29T13:15:47;27.27;;;15.13;;
19535;SDS011;9913;51.168;4.124;2023-01-29T13:18:32;28.30;;;16.63;;
19535;SDS011;9913;51.168;4.124;2023-01-29T13:21:10;30.37;;;16.10;;
19535;SDS011;9913;51.168;4.124;2023-01-29T13:23:42;29.17;;;15.30;;
19535;SDS011;9913;51.168;4.124;2023-01-29T13:26:15;31.10;;;15.47;;
19535;SDS011;9913;51.168;4.124;2023-01-29T13:28:45;30.97;;;15.93;;
19535;SDS011;9913;51.168;4.124;2023-01-29T13:31:22;25.67;;;15.03;;
19535;SDS011;9913;51.168;4.124;2023-01-29T13:34:01;25.83;;;15.20;;
19535;SDS011;9913;51.168;4.124;2023-01-29T13:36:35;27.73;;;15.27;;
19535;SDS011;9913;51.168;4.124;2023-01-29T13:39:15;28.20;;;14.97;;
19535;SDS011;9913;51.168;4.124;2023-01-29T13:41:50;28.83;;;14.63;;
19535;SDS011;9913;51.168;4.124;2023-01-29T13:44:20;25.73;;;14.97;;
19535;SDS011;9913;51.168;4.124;2023-01-29T13:46:54;25.00;;;14.03;;
19535;SDS011;9913;51.168;4.124;2023-01-29T13:52:13;27.90;;;14.90;;
19535;SDS011;9913;51.168;4.124;2023-01-29T13:54:51;23.83;;;13.83;;
19535;SDS011;9913;51.168;4.124;2023-01-29T14:06:44;26.93;;;14.27;;
19535;SDS011;9913;51.168;4.124;2023-01-29T14:15:16;30.03;;;15.80;;
19535;SDS011;9913;51.168;4.124;2023-01-29T14:18:03;30.43;;;16.97;;
19535;SDS011;9913;51.168;4.124;2023-01-29T14:20:53;29.07;;;14.47;;
19535;SDS011;9913;51.168;4.124;2023-01-29T14:23:28;33.77;;;15.27;;
19535;SDS011;9913;51.168;4.124;2023-01-29T14:26:21;29.33;;;15.40;;
19535;SDS011;9913;51.168;4.124;2023-01-29T14:28:56;25.97;;;15.10;;
19535;SDS011;9913;51.168;4.124;2023-01-29T14:31:34;26.37;;;14.97;;
19535;SDS011;9913;51.168;4.124;2023-01-29T14:34:12;26.93;;;15.00;;
19535;SDS011;9913;51.168;4.124;2023-01-29T14:36:47;28.30;;;15.50;;
19535;SDS011;9913;51.168;4.124;2023-01-29T14:39:27;25.13;;;14.37;;
19535;SDS011;9913;51.168;4.124;2023-01-29T14:42:00;27.27;;;13.70;;
19535;SDS011;9913;51.168;4.124;2023-01-29T14:44:47;24.67;;;14.23;;
19535;SDS011;9913;51.168;4.124;2023-01-29T14:53:26;30.40;;;17.73;;
19535;SDS011;9913;51.168;4.124;2023-01-29T14:56:01;28.67;;;15.77;;
19535;SDS011;9913;51.168;4.124;2023-01-29T14:58:34;29.27;;;15.87;;
19535;SDS011;9913;51.168;4.124;2023-01-29T15:01:06;24.53;;;14.27;;
19535;SDS011;9913;51.168;4.124;2023-01-29T15:03:45;27.57;;;15.33;;
19535;SDS011;9913;51.168;4.124;2023-01-29T15:06:16;26.27;;;15.73;;
19535;SDS011;9913;51.168;4.124;2023-01-29T15:08:52;26.97;;;15.10;;
19535;SDS011;9913;51.168;4.124;2023-01-29T15:11:26;28.47;;;14.87;;
19535;SDS011;9913;51.168;4.124;2023-01-29T15:17:06;30.87;;;16.50;;
19535;SDS011;9913;51.168;4.124;2023-01-29T15:19:44;24.83;;;15.73;;
19535;SDS011;9913;51.168;4.124;2023-01-29T15:22:15;28.17;;;15.10;;
19535;SDS011;9913;51.168;4.124;2023-01-29T15:24:46;31.20;;;17.40;;
19535;SDS011;9913;51.168;4.124;2023-01-29T15:27:30;25.43;;;14.90;;
19535;SDS011;9913;51.168;4.124;2023-01-29T15:29:59;26.50;;;14.80;;
19535;SDS011;9913;51.168;4.124;2023-01-29T15:32:30;31.07;;;16.40;;
19535;SDS011;9913;51.168;4.124;2023-01-29T15:35:00;25.80;;;15.60;;
19535;SDS011;9913;51.168;4.124;2023-01-29T15:37:34;35.47;;;18.20;;
19535;SDS011;9913;51.168;4.124;2023-01-29T15:40:18;28.17;;;15.17;;
19535;SDS011;9913;51.168;4.124;2023-01-29T15:42:46;30.87;;;16.57;;
19535;SDS011;9913;51.168;4.124;2023-01-29T15:45:21;30.17;;;16.80;;
19535;SDS011;9913;51.168;4.124;2023-01-29T15:47:53;27.83;;;16.53;;
19535;SDS011;9913;51.168;4.124;2023-01-29T15:50:24;25.03;;;15.50;;